Portada
METAR-TAF:

METAR-TAF

Aeropuertos :

Aeropuerto de Andorra-La Seu

Seo de Urgel, España

latitud: 42-20-29N, longitud: 001-24-17E, altitud: 802 m

Observación

El informe se hizo hace 28 minutos, a las 12:00 UTC
Viento 2 kt con dirección variable
Temperatura 11°C
Humedad 25%
Presión 1031 hPa
Visibilidad 10 km o más
sin nubes por debajo de 1500 m y sin presencia de cumulonimbus.

METAR: LESU 031200Z VRB02KT CAVOK 11/M08 Q1031

Hora: 13:28 (12:28 UTC)

Pronóstico

El informe se hizo hace 4 horas y 28 minutos, a las 08:00 UTC
Pronóstico válido del 03 a las 09 UTC al 04 a las 09 UTC
Viento 4 kt con dirección variable
Visibilidad 10 km o más
sin nubes por debajo de 1500 m y sin presencia de cumulonimbus.
Temporalmente
del 03 a las 13 UTC al 03 a las 17 UTC
Viento 7 kt del sur-suroeste

TAF: LESU 030800Z 0309/0409 VRB04KT CAVOK TX17/0314Z TNM05/0407Z TEMPO 0313/0317 20007KT

Observaciones y pronósticos meteorológicos de más de 4000 aeropuertos (mensajes METAR y TAF).

Los puntos amarillos y rojos representan las estaciones disponibles.

Ponga el ratón en el punto deseado para ver el nombre de la estación.

Haga clic para ver las observaciones y los pronósticos meteorológicos.

Para cambiar el mapa : haga clic en los botones verdes con una cruz de color negro para hacer un zoom, en el botón verde con un guión para alejar o en las flechas verdes para mapas adyacentes.


METAR-TAF: